sensor_id;sensor_type;location;lat;lon;timestamp;temperature;humidity
49821;DHT22;36893;52.520;13.450;2022-11-20T00:02:16;18.60;79.10
49821;DHT22;36893;52.520;13.450;2022-11-20T00:12:17;18.60;79.20
49821;DHT22;36893;52.520;13.450;2022-11-20T00:22:17;18.60;79.30
49821;DHT22;36893;52.520;13.450;2022-11-20T00:32:18;18.50;79.30
49821;DHT22;36893;52.520;13.450;2022-11-20T00:42:19;18.50;79.40
49821;DHT22;36893;52.520;13.450;2022-11-20T00:52:20;18.50;79.40
49821;DHT22;36893;52.520;13.450;2022-11-20T01:02:21;18.50;79.50
49821;DHT22;36893;52.520;13.450;2022-11-20T01:12:22;18.50;79.60
49821;DHT22;36893;52.520;13.450;2022-11-20T01:22:22;18.50;79.60
49821;DHT22;36893;52.520;13.450;2022-11-20T01:32:23;18.40;79.60
49821;DHT22;36893;52.520;13.450;2022-11-20T01:42:24;18.40;79.60
49821;DHT22;36893;52.520;13.450;2022-11-20T01:53:05;18.40;79.80
49821;DHT22;36893;52.520;13.450;2022-11-20T02:03:15;18.40;79.90
49821;DHT22;36893;52.520;13.450;2022-11-20T02:13:17;18.40;79.90
49821;DHT22;36893;52.520;13.450;2022-11-20T02:34:06;18.30;80.00
49821;DHT22;36893;52.520;13.450;2022-11-20T02:44:07;18.30;79.90
49821;DHT22;36893;52.520;13.450;2022-11-20T02:54:08;18.30;79.90
49821;DHT22;36893;52.520;13.450;2022-11-20T03:04:09;18.30;80.00
49821;DHT22;36893;52.520;13.450;2022-11-20T03:14:09;18.30;80.00
49821;DHT22;36893;52.520;13.450;2022-11-20T03:24:10;18.30;80.10
49821;DHT22;36893;52.520;13.450;2022-11-20T03:34:11;18.30;80.10
49821;DHT22;36893;52.520;13.450;2022-11-20T03:44:12;18.30;80.10
49821;DHT22;36893;52.520;13.450;2022-11-20T03:54:12;18.20;80.10
49821;DHT22;36893;52.520;13.450;2022-11-20T04:04:13;18.20;80.20
49821;DHT22;36893;52.520;13.450;2022-11-20T04:14:15;18.20;80.20
49821;DHT22;36893;52.520;13.450;2022-11-20T04:24:16;18.20;80.30
49821;DHT22;36893;52.520;13.450;2022-11-20T04:34:17;18.20;80.30
49821;DHT22;36893;52.520;13.450;2022-11-20T04:44:17;18.20;80.30
49821;DHT22;36893;52.520;13.450;2022-11-20T04:54:18;18.20;80.30
49821;DHT22;36893;52.520;13.450;2022-11-20T05:04:20;18.20;80.30
49821;DHT22;36893;52.520;13.450;2022-11-20T05:14:21;18.20;80.30
49821;DHT22;36893;52.520;13.450;2022-11-20T05:24:21;18.10;80.30
49821;DHT22;36893;52.520;13.450;2022-11-20T05:34:22;18.10;80.30
49821;DHT22;36893;52.520;13.450;2022-11-20T05:44:23;18.10;80.40
49821;DHT22;36893;52.520;13.450;2022-11-20T05:54:23;18.10;80.40
49821;DHT22;36893;52.520;13.450;2022-11-20T06:04:24;18.10;80.50
49821;DHT22;36893;52.520;13.450;2022-11-20T06:14:25;18.10;80.50
49821;DHT22;36893;52.520;13.450;2022-11-20T06:24:25;18.00;80.50
49821;DHT22;36893;52.520;13.450;2022-11-20T06:34:26;18.10;80.50
49821;DHT22;36893;52.520;13.450;2022-11-20T06:44:26;18.00;80.50
49821;DHT22;36893;52.520;13.450;2022-11-20T06:54:27;18.00;80.60
49821;DHT22;36893;52.520;13.450;2022-11-20T07:04:28;18.00;80.60
49821;DHT22;36893;52.520;13.450;2022-11-20T07:14:28;18.00;80.70
49821;DHT22;36893;52.520;13.450;2022-11-20T07:24:29;18.00;80.80
49821;DHT22;36893;52.520;13.450;2022-11-20T07:34:30;18.00;80.90
49821;DHT22;36893;52.520;13.450;2022-11-20T07:44:30;18.00;81.00
49821;DHT22;36893;52.520;13.450;2022-11-20T07:54:31;18.00;81.30
49821;DHT22;36893;52.520;13.450;2022-11-20T08:04:32;18.00;81.30
49821;DHT22;36893;52.520;13.450;2022-11-20T08:14:33;18.00;81.30
49821;DHT22;36893;52.520;13.450;2022-11-20T08:24:34;18.00;81.30
49821;DHT22;36893;52.520;13.450;2022-11-20T08:34:35;18.00;81.40
49821;DHT22;36893;52.520;13.450;2022-11-20T08:44:35;17.90;81.30
49821;DHT22;36893;52.520;13.450;2022-11-20T08:54:36;17.90;81.30
49821;DHT22;36893;52.520;13.450;2022-11-20T09:04:36;17.90;81.30
49821;DHT22;36893;52.520;13.450;2022-11-20T09:14:38;17.90;81.20
49821;DHT22;36893;52.520;13.450;2022-11-20T09:24:39;17.90;81.20
49821;DHT22;36893;52.520;13.450;2022-11-20T09:34:39;17.90;81.10
49821;DHT22;36893;52.520;13.450;2022-11-20T09:45:08;17.90;81.10
49821;DHT22;36893;52.520;13.450;2022-11-20T09:55:12;17.90;81.20
49821;DHT22;36893;52.520;13.450;2022-11-20T10:05:35;17.80;81.00
49821;DHT22;36893;52.520;13.450;2022-11-20T10:15:52;17.80;81.00
49821;DHT22;36893;52.520;13.450;2022-11-20T10:26:06;17.80;81.00
49821;DHT22;36893;52.520;13.450;2022-11-20T10:46:34;17.80;81.10
49821;DHT22;36893;52.520;13.450;2022-11-20T10:56:46;17.90;81.30
49821;DHT22;36893;52.520;13.450;2022-11-20T11:06:48;17.80;81.20
49821;DHT22;36893;52.520;13.450;2022-11-20T11:16:57;17.90;81.30
49821;DHT22;36893;52.520;13.450;2022-11-20T11:27:04;17.90;81.50
49821;DHT22;36893;52.520;13.450;2022-11-20T11:37:17;17.90;81.50
49821;DHT22;36893;52.520;13.450;2022-11-20T11:47:46;17.90;81.60
49821;DHT22;36893;52.520;13.450;2022-11-20T11:58:27;17.90;81.80
49821;DHT22;36893;52.520;13.450;2022-11-20T12:08:55;17.90;81.90
49821;DHT22;36893;52.520;13.450;2022-11-20T12:18:59;17.90;81.90
49821;DHT22;36893;52.520;13.450;2022-11-20T12:29:32;17.90;81.90
49821;DHT22;36893;52.520;13.450;2022-11-20T12:39:42;17.80;82.00
49821;DHT22;36893;52.520;13.450;2022-11-20T12:50:00;17.90;82.10
49821;DHT22;36893;52.520;13.450;2022-11-20T13:00:10;17.90;82.40
49821;DHT22;36893;52.520;13.450;2022-11-20T13:10:22;17.90;82.40
49821;DHT22;36893;52.520;13.450;2022-11-20T13:20:27;17.90;82.40
49821;DHT22;36893;52.520;13.450;2022-11-20T13:30:48;17.90;82.30
49821;DHT22;36893;52.520;13.450;2022-11-20T13:40:56;17.90;82.40
49821;DHT22;36893;52.520;13.450;2022-11-20T13:51:08;17.90;82.40
49821;DHT22;36893;52.520;13.450;2022-11-20T14:01:17;17.90;82.40
49821;DHT22;36893;52.520;13.450;2022-11-20T14:21:29;17.90;82.30
49821;DHT22;36893;52.520;13.450;2022-11-20T14:31:30;17.80;82.20
49821;DHT22;36893;52.520;13.450;2022-11-20T14:41:30;17.90;82.30
49821;DHT22;36893;52.520;13.450;2022-11-20T14:51:35;17.80;82.20
49821;DHT22;36893;52.520;13.450;2022-11-20T15:01:55;17.80;82.10
49821;DHT22;36893;52.520;13.450;2022-11-20T15:11:59;17.80;82.20
49821;DHT22;36893;52.520;13.450;2022-11-20T15:22:02;17.80;82.20
49821;DHT22;36893;52.520;13.450;2022-11-20T15:32:03;17.80;82.30
49821;DHT22;36893;52.520;13.450;2022-11-20T15:42:03;17.70;82.30
49821;DHT22;36893;52.520;13.450;2022-11-20T15:52:04;17.80;82.50
49821;DHT22;36893;52.520;13.450;2022-11-20T16:02:11;17.70;82.40
49821;DHT22;36893;52.520;13.450;2022-11-20T16:12:12;17.70;82.40
49821;DHT22;36893;52.520;13.450;2022-11-20T16:22:33;17.70;82.40
49821;DHT22;36893;52.520;13.450;2022-11-20T16:32:33;17.70;82.30
49821;DHT22;36893;52.520;13.450;2022-11-20T16:42:35;17.70;82.30
49821;DHT22;36893;52.520;13.450;2022-11-20T16:52:36;17.70;82.30
49821;DHT22;36893;52.520;13.450;2022-11-20T17:02:37;17.70;82.30
49821;DHT22;36893;52.520;13.450;2022-11-20T17:12:37;17.60;82.20
49821;DHT22;36893;52.520;13.450;2022-11-20T17:22:38;17.60;82.30
49821;DHT22;36893;52.520;13.450;2022-11-20T17:32:39;17.60;82.20
49821;DHT22;36893;52.520;13.450;2022-11-20T17:42:44;17.60;82.20
49821;DHT22;36893;52.520;13.450;2022-11-20T17:52:45;17.60;82.20
49821;DHT22;36893;52.520;13.450;2022-11-20T18:02:46;17.60;82.20
49821;DHT22;36893;52.520;13.450;2022-11-20T18:12:46;17.60;82.30
49821;DHT22;36893;52.520;13.450;2022-11-20T18:22:47;17.60;82.20
49821;DHT22;36893;52.520;13.450;2022-11-20T18:32:47;17.60;82.20
49821;DHT22;36893;52.520;13.450;2022-11-20T18:42:49;17.50;82.20
49821;DHT22;36893;52.520;13.450;2022-11-20T18:53:08;17.50;82.20
49821;DHT22;36893;52.520;13.450;2022-11-20T19:03:09;17.50;82.10
49821;DHT22;36893;52.520;13.450;2022-11-20T19:13:10;17.50;82.20
49821;DHT22;36893;52.520;13.450;2022-11-20T19:23:11;17.50;82.20
49821;DHT22;36893;52.520;13.450;2022-11-20T19:33:13;17.50;82.20
49821;DHT22;36893;52.520;13.450;2022-11-20T19:43:14;17.50;82.40
49821;DHT22;36893;52.520;13.450;2022-11-20T19:53:15;17.50;82.50
49821;DHT22;36893;52.520;13.450;2022-11-20T20:03:17;17.50;82.60
49821;DHT22;36893;52.520;13.450;2022-11-20T20:13:18;17.50;82.70
49821;DHT22;36893;52.520;13.450;2022-11-20T20:23:19;17.50;82.80
49821;DHT22;36893;52.520;13.450;2022-11-20T20:33:20;17.50;83.00
49821;DHT22;36893;52.520;13.450;2022-11-20T20:43:24;17.50;83.30
49821;DHT22;36893;52.520;13.450;2022-11-20T20:53:24;17.50;83.50
49821;DHT22;36893;52.520;13.450;2022-11-20T21:03:26;17.50;83.60
49821;DHT22;36893;52.520;13.450;2022-11-20T21:13:27;17.50;84.50
49821;DHT22;36893;52.520;13.450;2022-11-20T21:23:29;17.50;83.70
49821;DHT22;36893;52.520;13.450;2022-11-20T21:33:40;17.50;83.90
49821;DHT22;36893;52.520;13.450;2022-11-20T21:43:45;17.50;83.90
49821;DHT22;36893;52.520;13.450;2022-11-20T21:53:47;17.50;83.90
49821;DHT22;36893;52.520;13.450;2022-11-20T22:03:50;17.50;84.00
49821;DHT22;36893;52.520;13.450;2022-11-20T22:13:51;17.50;84.10
49821;DHT22;36893;52.520;13.450;2022-11-20T22:24:15;17.40;84.10
49821;DHT22;36893;52.520;13.450;2022-11-20T22:34:17;17.40;84.10
49821;DHT22;36893;52.520;13.450;2022-11-20T22:44:18;17.40;84.10
49821;DHT22;36893;52.520;13.450;2022-11-20T22:54:18;17.40;84.20
49821;DHT22;36893;52.520;13.450;2022-11-20T23:04:19;17.40;84.10
49821;DHT22;36893;52.520;13.450;2022-11-20T23:14:20;17.40;84.10
49821;DHT22;36893;52.520;13.450;2022-11-20T23:24:20;17.30;84.10
49821;DHT22;36893;52.520;13.450;2022-11-20T23:34:21;17.40;84.20
49821;DHT22;36893;52.520;13.450;2022-11-20T23:44:21;17.30;84.10
49821;DHT22;36893;52.520;13.450;2022-11-20T23:54:22;17.40;84.30
